createdAt,value
2022-08-31T00:00:38.014Z,100.00
2022-08-31T00:03:24.665Z,100.00
2022-08-31T00:05:59.650Z,100.00
2022-08-31T00:08:30.183Z,100.00
2022-08-31T00:10:59.522Z,100.00
2022-08-31T00:13:30.011Z,100.00
2022-08-31T00:15:59.048Z,100.00
2022-08-31T00:18:27.712Z,100.00
2022-08-31T00:20:56.502Z,100.00
2022-08-31T00:23:26.635Z,100.00
2022-08-31T00:25:56.016Z,100.00
2022-08-31T00:28:24.866Z,100.00
2022-08-31T00:30:53.477Z,100.00
2022-08-31T00:33:22.300Z,100.00
2022-08-31T00:35:50.907Z,100.00
2022-08-31T00:38:19.532Z,100.00
2022-08-31T00:40:49.724Z,100.00
2022-08-31T00:43:41.427Z,100.00
2022-08-31T00:46:12.982Z,100.00
2022-08-31T00:48:45.538Z,100.00
2022-08-31T00:51:18.556Z,100.00
2022-08-31T00:53:49.724Z,100.00
2022-08-31T00:56:22.650Z,100.00
2022-08-31T00:58:54.430Z,100.00
2022-08-31T01:01:24.475Z,100.00
2022-08-31T01:03:53.209Z,100.00
2022-08-31T01:06:22.715Z,100.00
2022-08-31T01:08:52.960Z,100.00
2022-08-31T01:11:23.712Z,100.00
2022-08-31T01:13:52.840Z,100.00
2022-08-31T01:16:26.017Z,100.00
2022-08-31T01:18:58.366Z,100.00
2022-08-31T01:21:31.532Z,100.00
2022-08-31T01:24:04.916Z,100.00
2022-08-31T01:26:34.754Z,100.00
2022-08-31T01:29:06.939Z,100.00
2022-08-31T01:31:38.816Z,100.00
2022-08-31T01:34:08.812Z,100.00
2022-08-31T01:36:39.400Z,100.00
2022-08-31T01:39:11.695Z,100.00
2022-08-31T01:41:44.169Z,100.00
2022-08-31T01:44:14.123Z,100.00
2022-08-31T01:46:44.339Z,100.00
2022-08-31T01:49:13.534Z,100.00
2022-08-31T01:51:44.799Z,100.00
2022-08-31T01:54:15.199Z,100.00
2022-08-31T01:56:46.911Z,100.00
2022-08-31T01:59:22.231Z,100.00
2022-08-31T02:02:11.238Z,100.00
2022-08-31T02:04:39.992Z,100.00
2022-08-31T02:07:08.608Z,100.00
2022-08-31T02:09:38.670Z,100.00
2022-08-31T02:12:07.754Z,100.00
2022-08-31T02:14:41.369Z,100.00
2022-08-31T02:17:10.163Z,100.00
2022-08-31T02:19:38.994Z,100.00
2022-08-31T02:22:08.056Z,100.00
2022-08-31T02:24:36.770Z,100.00
2022-08-31T02:27:07.412Z,100.00
2022-08-31T02:29:36.414Z,100.00
2022-08-31T02:32:05.563Z,100.00
2022-08-31T02:34:34.493Z,100.00
2022-08-31T02:37:03.342Z,100.00
2022-08-31T02:39:33.880Z,100.00
2022-08-31T02:42:02.780Z,100.00
2022-08-31T02:44:33.386Z,100.00
2022-08-31T02:47:02.633Z,100.00
2022-08-31T02:49:52.940Z,100.00
2022-08-31T02:52:21.436Z,100.00
2022-08-31T02:54:50.690Z,100.00
2022-08-31T02:57:19.288Z,100.00
2022-08-31T02:59:49.248Z,100.00
2022-08-31T03:02:18.131Z,100.00
2022-08-31T03:04:48.007Z,100.00
2022-08-31T03:07:19.290Z,100.00
2022-08-31T03:09:48.216Z,100.00
2022-08-31T03:12:17.147Z,100.00
2022-08-31T03:14:46.138Z,100.00
2022-08-31T03:17:16.607Z,100.00
2022-08-31T03:19:45.365Z,100.00
2022-08-31T03:22:14.901Z,100.00
2022-08-31T03:24:44.292Z,100.00
2022-08-31T03:27:12.971Z,100.00
2022-08-31T03:29:42.595Z,100.00
2022-08-31T03:32:19.386Z,100.00
2022-08-31T03:34:55.435Z,100.00
2022-08-31T03:37:24.015Z,100.00
2022-08-31T03:39:55.120Z,100.00
2022-08-31T03:42:23.996Z,100.00
2022-08-31T03:44:52.882Z,100.00
2022-08-31T03:47:28.443Z,100.00
2022-08-31T03:49:57.860Z,100.00
2022-08-31T03:52:37.293Z,100.00
2022-08-31T03:55:13.716Z,100.00
2022-08-31T03:57:43.401Z,100.00
2022-08-31T04:00:13.255Z,100.00
2022-08-31T04:06:02.125Z,100.00
2022-08-31T04:08:49.230Z,100.00
2022-08-31T04:11:45.344Z,100.00
2022-08-31T04:14:52.662Z,100.00
2022-08-31T04:17:48.177Z,100.00
2022-08-31T04:20:45.893Z,100.00
2022-08-31T04:23:15.921Z,100.00
2022-08-31T04:25:54.982Z,100.00
2022-08-31T04:28:23.651Z,100.00
2022-08-31T04:30:52.321Z,100.00
2022-08-31T04:33:22.319Z,100.00
2022-08-31T04:35:50.927Z,100.00
2022-08-31T04:38:20.985Z,100.00
2022-08-31T04:40:52.411Z,100.00
2022-08-31T04:43:21.214Z,100.00
2022-08-31T04:45:52.927Z,100.00
2022-08-31T04:48:21.845Z,100.00
2022-08-31T04:50:50.874Z,100.00
2022-08-31T04:53:20.907Z,100.00
2022-08-31T04:55:49.568Z,100.00
2022-08-31T04:58:20.622Z,100.00
2022-08-31T05:00:49.204Z,100.00
2022-08-31T05:03:26.792Z,100.00
2022-08-31T05:05:57.120Z,100.00
2022-08-31T05:08:28.209Z,100.00
2022-08-31T05:10:56.838Z,100.00
2022-08-31T05:13:25.608Z,100.00
2022-08-31T05:15:55.652Z,100.00
2022-08-31T05:18:26.424Z,100.00
2022-08-31T05:21:10.725Z,100.00
2022-08-31T05:23:41.383Z,100.00
2022-08-31T05:26:10.968Z,100.00
2022-08-31T05:28:39.521Z,100.00
2022-08-31T05:31:08.272Z,100.00
2022-08-31T05:33:42.510Z,100.00
2022-08-31T05:36:12.098Z,100.00
2022-08-31T05:38:42.897Z,100.00
2022-08-31T05:41:13.959Z,100.00
2022-08-31T05:43:42.684Z,100.00
2022-08-31T05:46:13.901Z,100.00
2022-08-31T05:48:43.042Z,100.00
2022-08-31T05:51:20.465Z,100.00
2022-08-31T05:53:51.077Z,100.00
2022-08-31T05:56:21.251Z,100.00
2022-08-31T05:58:51.777Z,100.00
2022-08-31T06:01:23.672Z,100.00
2022-08-31T06:04:21.634Z,100.00
2022-08-31T06:06:50.250Z,100.00
2022-08-31T06:09:23.241Z,100.00
2022-08-31T06:11:52.419Z,100.00
2022-08-31T06:14:23.742Z,100.00
2022-08-31T06:16:56.757Z,100.00
2022-08-31T06:19:26.015Z,100.00
2022-08-31T06:21:55.859Z,100.00
2022-08-31T06:24:28.242Z,100.00
2022-08-31T06:26:59.422Z,100.00
2022-08-31T06:29:35.944Z,100.00
2022-08-31T06:32:08.357Z,100.00
2022-08-31T06:34:41.351Z,100.00
2022-08-31T06:37:18.975Z,100.00
2022-08-31T06:40:18.435Z,100.00
2022-08-31T06:43:18.997Z,100.00
2022-08-31T06:45:58.582Z,100.00
2022-08-31T06:48:39.194Z,100.00
2022-08-31T06:51:09.345Z,100.00
2022-08-31T06:53:40.475Z,100.00
2022-08-31T06:56:30.855Z,100.00
2022-08-31T06:59:18.166Z,98.44
2022-08-31T07:02:13.129Z,91.86
2022-08-31T07:04:41.799Z,87.00
2022-08-31T07:07:11.689Z,82.95
2022-08-31T07:09:42.589Z,83.25
2022-08-31T07:12:13.674Z,82.04
2022-08-31T07:14:42.261Z,76.83
2022-08-31T07:17:19.257Z,75.03
2022-08-31T07:19:47.984Z,69.76
2022-08-31T07:22:17.470Z,69.89
2022-08-31T07:24:48.540Z,66.40
2022-08-31T07:27:18.682Z,64.73
2022-08-31T07:30:00.452Z,64.16
2022-08-31T07:32:33.730Z,63.28
2022-08-31T07:35:03.124Z,62.91
2022-08-31T07:37:49.536Z,62.20
2022-08-31T07:40:36.616Z,59.81
2022-08-31T07:43:07.028Z,58.66
2022-08-31T07:45:39.676Z,55.18
2022-08-31T07:48:09.551Z,54.72
2022-08-31T07:50:56.616Z,53.77
2022-08-31T07:53:47.759Z,53.03
2022-08-31T07:56:40.045Z,50.13
2022-08-31T07:59:15.528Z,48.63
2022-08-31T08:01:46.904Z,46.48
2022-08-31T08:04:25.560Z,46.69
2022-08-31T08:07:17.615Z,45.26
2022-08-31T08:09:55.296Z,42.93
2022-08-31T08:12:47.334Z,41.97
2022-08-31T08:15:35.843Z,40.87
2022-08-31T08:18:23.471Z,41.43
2022-08-31T08:20:55.631Z,40.82
2022-08-31T08:23:26.802Z,40.55
2022-08-31T08:26:26.465Z,39.73
2022-08-31T08:29:09.533Z,38.88
2022-08-31T08:31:52.299Z,38.98
2022-08-31T08:34:22.258Z,38.55
2022-08-31T08:37:01.003Z,37.03
2022-08-31T08:39:29.694Z,36.40
2022-08-31T08:42:13.090Z,36.09
2022-08-31T08:44:43.657Z,36.12
2022-08-31T08:47:23.943Z,35.47
2022-08-31T08:50:03.978Z,35.33
2022-08-31T08:52:41.622Z,35.85
2022-08-31T08:55:15.709Z,36.00
2022-08-31T08:57:47.878Z,35.31
2022-08-31T09:00:19.388Z,35.20
2022-08-31T09:03:00.300Z,35.27
2022-08-31T09:06:03.635Z,33.71
2022-08-31T09:08:59.141Z,31.84
2022-08-31T09:11:38.367Z,33.19
2022-08-31T09:14:21.466Z,32.28
2022-08-31T09:16:56.646Z,30.44
2022-08-31T09:19:51.055Z,31.12
2022-08-31T09:22:20.332Z,29.96
2022-08-31T09:24:56.313Z,29.51
2022-08-31T09:27:48.571Z,31.21
2022-08-31T09:30:33.806Z,30.92
2022-08-31T09:33:02.542Z,33.85
2022-08-31T09:35:40.490Z,32.44
2022-08-31T09:38:11.527Z,30.66
2022-08-31T09:40:42.943Z,30.87
2022-08-31T09:43:15.668Z,31.24
2022-08-31T09:45:56.757Z,31.00
2022-08-31T09:48:44.229Z,29.48
2022-08-31T09:51:25.718Z,29.77
2022-08-31T09:54:12.621Z,28.96
2022-08-31T09:56:55.692Z,28.11
2022-08-31T09:59:34.738Z,28.25
2022-08-31T10:02:06.101Z,28.55
2022-08-31T10:04:38.326Z,29.73
2022-08-31T10:07:22.523Z,31.01
2022-08-31T10:09:58.036Z,33.15
2022-08-31T10:12:37.520Z,34.27
2022-08-31T10:15:15.673Z,33.27
2022-08-31T10:17:52.231Z,33.77
2022-08-31T10:20:30.439Z,35.20
2022-08-31T10:23:14.586Z,34.21
2022-08-31T10:25:46.958Z,33.18
2022-08-31T10:28:21.651Z,31.62
2022-08-31T10:30:59.792Z,30.64
2022-08-31T10:33:55.036Z,29.91
2022-08-31T10:36:27.248Z,29.00
2022-08-31T10:38:58.026Z,29.05
2022-08-31T10:41:32.700Z,29.99
2022-08-31T10:44:08.331Z,31.86
2022-08-31T10:46:37.182Z,30.92
2022-08-31T10:49:06.541Z,31.28
2022-08-31T10:51:46.435Z,32.40
2022-08-31T10:54:30.028Z,33.63
2022-08-31T10:57:08.008Z,30.87
2022-08-31T10:59:46.219Z,29.21
2022-08-31T11:02:46.534Z,29.30
2022-08-31T11:05:30.409Z,29.45
2022-08-31T11:08:12.445Z,31.35
2022-08-31T11:10:49.642Z,31.00
2022-08-31T11:13:38.627Z,29.57
2022-08-31T11:16:22.067Z,29.36
2022-08-31T11:19:09.434Z,28.94
2022-08-31T11:21:52.329Z,34.02
2022-08-31T11:24:37.624Z,33.67
2022-08-31T11:27:14.594Z,33.29
2022-08-31T11:29:47.932Z,31.21
2022-08-31T11:32:23.601Z,31.22
2022-08-31T11:34:55.031Z,31.79
2022-08-31T11:37:56.129Z,30.80
2022-08-31T11:40:59.129Z,30.77
2022-08-31T11:43:53.931Z,29.21
2022-08-31T11:46:46.023Z,31.29
2022-08-31T11:49:38.850Z,31.25
2022-08-31T11:52:13.723Z,32.89
2022-08-31T11:55:04.391Z,30.49
2022-08-31T11:57:37.606Z,28.95
2022-08-31T12:00:20.957Z,31.25
2022-08-31T12:03:09.795Z,31.72
2022-08-31T12:05:58.186Z,31.69
2022-08-31T12:08:28.766Z,31.71
2022-08-31T12:11:04.088Z,35.37
2022-08-31T12:13:38.812Z,37.16
2022-08-31T12:16:22.751Z,39.39
2022-08-31T12:19:06.805Z,42.20
2022-08-31T12:22:06.052Z,43.36
2022-08-31T12:24:49.118Z,44.74
2022-08-31T12:27:33.561Z,45.91
2022-08-31T12:30:20.399Z,48.44
2022-08-31T12:33:00.133Z,49.22
2022-08-31T12:35:31.929Z,50.23
2022-08-31T12:38:03.310Z,50.61
2022-08-31T12:40:34.522Z,51.31
2022-08-31T12:43:07.962Z,52.12
2022-08-31T12:45:57.894Z,54.37
2022-08-31T12:48:39.716Z,55.60
2022-08-31T12:51:21.100Z,56.79
2022-08-31T12:54:28.465Z,57.55
2022-08-31T12:57:05.369Z,59.10
2022-08-31T13:00:00.081Z,59.56
2022-08-31T13:02:30.948Z,60.50
2022-08-31T13:05:01.174Z,60.58
2022-08-31T13:07:33.355Z,58.62
2022-08-31T13:10:12.160Z,58.11
2022-08-31T13:12:48.659Z,57.75
2022-08-31T13:15:25.064Z,58.66
2022-08-31T13:17:55.226Z,58.52
2022-08-31T13:20:29.562Z,59.52
2022-08-31T13:23:02.526Z,59.96
2022-08-31T13:25:35.958Z,58.07
2022-08-31T13:28:08.532Z,58.40
2022-08-31T13:30:39.287Z,58.71
2022-08-31T13:33:27.258Z,58.86
2022-08-31T13:36:03.983Z,59.00
2022-08-31T13:38:43.569Z,59.66
2022-08-31T13:41:23.878Z,59.29
2022-08-31T13:43:59.147Z,59.76
2022-08-31T13:46:42.305Z,60.06
2022-08-31T13:49:32.463Z,60.49
2022-08-31T13:52:03.019Z,63.58
2022-08-31T13:54:34.053Z,66.34
2022-08-31T13:57:19.788Z,68.90
2022-08-31T13:59:50.252Z,70.55
2022-08-31T14:02:39.307Z,73.13
2022-08-31T14:05:10.633Z,74.46
2022-08-31T14:07:59.998Z,76.15
2022-08-31T14:10:32.196Z,76.36
2022-08-31T14:13:04.150Z,75.52
2022-08-31T14:15:37.975Z,76.30
2022-08-31T14:18:26.038Z,77.88
2022-08-31T14:21:21.942Z,77.57
2022-08-31T14:23:54.222Z,78.38
2022-08-31T14:26:26.658Z,79.93
2022-08-31T14:29:00.433Z,79.35
2022-08-31T14:31:34.342Z,78.54
2022-08-31T14:34:25.620Z,79.52
2022-08-31T14:36:58.383Z,81.84
2022-08-31T14:39:32.198Z,82.03
2022-08-31T14:42:03.870Z,82.17
2022-08-31T14:44:35.501Z,82.36
2022-08-31T14:47:04.858Z,82.76
2022-08-31T14:49:36.519Z,82.36
2022-08-31T14:52:06.782Z,84.17
2022-08-31T14:54:37.865Z,84.14
2022-08-31T14:57:12.516Z,86.08
2022-08-31T14:59:44.846Z,86.41
2022-08-31T15:02:16.552Z,87.26
2022-08-31T15:04:46.010Z,88.46
2022-08-31T15:07:15.841Z,89.64
2022-08-31T15:09:49.978Z,89.72
2022-08-31T15:12:19.475Z,89.71
2022-08-31T15:14:47.981Z,90.03
2022-08-31T15:17:19.822Z,90.60
2022-08-31T15:19:50.598Z,90.92
2022-08-31T15:22:19.725Z,90.46
2022-08-31T15:24:50.233Z,91.17
2022-08-31T15:27:19.290Z,90.91
2022-08-31T15:29:51.147Z,92.24
2022-08-31T15:32:19.679Z,92.42
2022-08-31T15:34:53.617Z,92.19
2022-08-31T15:37:22.731Z,92.90
2022-08-31T15:39:53.035Z,95.32
2022-08-31T15:42:22.922Z,96.10
2022-08-31T15:44:57.067Z,96.21
2022-08-31T15:47:45.271Z,96.82
2022-08-31T15:50:14.404Z,95.54
2022-08-31T15:52:51.214Z,95.43
2022-08-31T15:55:26.850Z,94.16
2022-08-31T15:57:57.682Z,94.85
2022-08-31T16:00:29.104Z,96.29
2022-08-31T16:02:57.774Z,95.95
2022-08-31T16:05:28.441Z,95.97
2022-08-31T16:07:58.238Z,97.44
2022-08-31T16:10:28.393Z,97.49
2022-08-31T16:12:57.084Z,97.34
2022-08-31T16:15:28.127Z,97.28
2022-08-31T16:17:58.543Z,96.92
2022-08-31T16:20:29.488Z,97.14
2022-08-31T16:22:59.373Z,96.67
2022-08-31T16:25:48.671Z,96.91
2022-08-31T16:28:20.225Z,97.83
2022-08-31T16:30:51.987Z,98.78
2022-08-31T16:33:21.198Z,98.82
2022-08-31T16:35:50.116Z,97.85
2022-08-31T16:38:19.621Z,98.72
2022-08-31T16:40:50.143Z,99.32
2022-08-31T16:43:18.637Z,98.97
2022-08-31T16:45:47.283Z,99.26
2022-08-31T16:48:33.310Z,98.32
2022-08-31T16:51:03.638Z,98.45
2022-08-31T16:53:32.805Z,99.68
2022-08-31T16:56:05.545Z,100.00
2022-08-31T16:58:51.277Z,100.00
2022-08-31T17:01:23.859Z,94.62
2022-08-31T17:03:56.019Z,97.40
2022-08-31T17:06:25.493Z,97.92
2022-08-31T17:08:55.303Z,100.00
2022-08-31T17:11:30.616Z,100.00
2022-08-31T17:14:01.242Z,100.00
2022-08-31T17:16:32.338Z,100.00
2022-08-31T17:19:02.150Z,100.00
2022-08-31T17:21:33.405Z,100.00
2022-08-31T17:24:04.012Z,100.00
2022-08-31T17:26:35.287Z,100.00
2022-08-31T17:29:07.095Z,100.00
2022-08-31T17:31:38.951Z,100.00
2022-08-31T17:34:07.451Z,100.00
2022-08-31T17:36:37.736Z,100.00
2022-08-31T17:39:07.591Z,100.00
2022-08-31T17:41:40.157Z,100.00
2022-08-31T17:44:09.324Z,100.00
2022-08-31T17:46:38.302Z,100.00
2022-08-31T17:49:06.853Z,100.00
2022-08-31T17:51:36.994Z,100.00
2022-08-31T17:54:07.746Z,100.00
2022-08-31T17:56:47.579Z,100.00
2022-08-31T17:59:19.339Z,100.00
2022-08-31T18:01:50.405Z,100.00
2022-08-31T18:04:20.688Z,100.00
2022-08-31T18:06:51.850Z,100.00
2022-08-31T18:09:22.182Z,100.00
2022-08-31T18:11:53.171Z,100.00
2022-08-31T18:14:23.259Z,100.00
2022-08-31T18:16:54.298Z,100.00
2022-08-31T18:19:27.334Z,100.00
2022-08-31T18:21:57.273Z,100.00
2022-08-31T18:24:25.909Z,100.00
2022-08-31T18:26:58.304Z,100.00
2022-08-31T18:29:27.082Z,100.00
2022-08-31T18:31:59.656Z,100.00
2022-08-31T18:34:29.591Z,100.00
2022-08-31T18:36:59.363Z,100.00
2022-08-31T18:39:51.220Z,100.00
2022-08-31T18:42:39.843Z,100.00
2022-08-31T18:45:19.954Z,100.00
2022-08-31T18:48:13.571Z,100.00
2022-08-31T18:50:39.299Z,100.00
2022-08-31T18:53:11.070Z,100.00
2022-08-31T18:55:43.837Z,100.00
2022-08-31T18:58:14.452Z,100.00
2022-08-31T19:00:43.159Z,100.00
2022-08-31T19:03:13.072Z,100.00
2022-08-31T19:05:42.022Z,100.00
2022-08-31T19:08:10.879Z,100.00
2022-08-31T19:10:42.986Z,100.00
2022-08-31T19:13:12.599Z,100.00
2022-08-31T19:15:42.544Z,100.00
2022-08-31T19:18:11.329Z,100.00
2022-08-31T19:20:40.888Z,100.00
2022-08-31T19:23:09.516Z,100.00
2022-08-31T19:25:43.597Z,100.00
2022-08-31T19:28:12.356Z,100.00
2022-08-31T19:30:48.765Z,100.00
2022-08-31T19:33:18.998Z,100.00
2022-08-31T19:35:47.878Z,100.00
2022-08-31T19:38:16.342Z,100.00
2022-08-31T19:40:50.007Z,100.00
2022-08-31T19:46:13.871Z,100.00
2022-08-31T19:48:44.558Z,100.00
2022-08-31T19:51:14.442Z,100.00
2022-08-31T19:53:45.181Z,100.00
2022-08-31T19:56:17.877Z,100.00
2022-08-31T19:58:48.478Z,100.00
2022-08-31T20:01:21.183Z,100.00
2022-08-31T20:03:50.644Z,100.00
2022-08-31T20:06:21.488Z,100.00
2022-08-31T20:08:51.424Z,100.00
2022-08-31T20:11:23.207Z,100.00
2022-08-31T20:13:52.760Z,100.00
2022-08-31T20:16:33.305Z,100.00
2022-08-31T20:19:04.283Z,100.00
2022-08-31T20:21:36.106Z,100.00
2022-08-31T20:24:08.011Z,100.00
2022-08-31T20:26:46.133Z,100.00
2022-08-31T20:29:18.181Z,100.00
2022-08-31T20:31:50.871Z,100.00
2022-08-31T20:34:22.003Z,100.00
2022-08-31T20:36:59.949Z,100.00
2022-08-31T20:39:32.458Z,100.00
2022-08-31T20:42:03.528Z,100.00
2022-08-31T20:44:35.155Z,100.00
2022-08-31T20:47:24.763Z,100.00
2022-08-31T20:49:56.776Z,100.00
2022-08-31T20:52:27.065Z,100.00
2022-08-31T20:55:02.171Z,100.00
2022-08-31T20:57:33.250Z,100.00
2022-08-31T21:00:03.183Z,100.00
2022-08-31T21:02:35.058Z,100.00
2022-08-31T21:07:57.605Z,100.00
2022-08-31T21:10:36.633Z,100.00
2022-08-31T21:13:07.318Z,100.00
2022-08-31T21:15:35.845Z,100.00
2022-08-31T21:18:06.100Z,100.00
2022-08-31T21:20:35.564Z,100.00
2022-08-31T21:23:04.099Z,100.00
2022-08-31T21:25:33.363Z,100.00
2022-08-31T21:28:02.972Z,100.00
2022-08-31T21:30:31.551Z,100.00
2022-08-31T21:33:00.628Z,100.00
2022-08-31T21:35:30.690Z,100.00
2022-08-31T21:38:02.779Z,100.00
2022-08-31T21:40:32.185Z,100.00
2022-08-31T21:43:02.210Z,100.00
2022-08-31T21:45:30.771Z,100.00
2022-08-31T21:47:59.421Z,100.00
2022-08-31T21:50:28.395Z,100.00
2022-08-31T21:53:00.431Z,100.00
2022-08-31T21:55:29.401Z,100.00
2022-08-31T21:57:58.219Z,100.00
2022-08-31T22:00:29.781Z,100.00
2022-08-31T22:02:58.572Z,100.00
2022-08-31T22:05:33.342Z,100.00
2022-08-31T22:08:03.803Z,100.00
2022-08-31T22:10:32.668Z,100.00
2022-08-31T22:13:03.536Z,100.00
2022-08-31T22:15:36.518Z,100.00
2022-08-31T22:18:46.122Z,100.00
2022-08-31T22:20:55.209Z,100.00
2022-08-31T22:23:26.017Z,100.00
2022-08-31T22:25:54.786Z,100.00
2022-08-31T22:28:25.179Z,100.00
2022-08-31T22:30:53.880Z,100.00
2022-08-31T22:33:23.570Z,100.00
2022-08-31T22:35:52.050Z,100.00
2022-08-31T22:38:20.769Z,100.00
2022-08-31T22:40:51.189Z,100.00
2022-08-31T22:43:19.848Z,100.00
2022-08-31T22:45:49.097Z,100.00
2022-08-31T22:48:18.457Z,100.00
2022-08-31T22:50:47.145Z,100.00
2022-08-31T22:53:16.266Z,100.00
2022-08-31T22:55:44.810Z,100.00
2022-08-31T22:58:15.180Z,100.00
2022-08-31T23:00:46.391Z,100.00
2022-08-31T23:03:15.047Z,100.00
2022-08-31T23:05:44.663Z,100.00
2022-08-31T23:08:14.105Z,100.00
2022-08-31T23:10:43.129Z,100.00
2022-08-31T23:13:11.734Z,100.00
2022-08-31T23:15:41.805Z,100.00
2022-08-31T23:18:10.832Z,100.00
2022-08-31T23:20:42.055Z,100.00
2022-08-31T23:23:11.228Z,100.00
2022-08-31T23:25:40.631Z,100.00
2022-08-31T23:28:09.733Z,100.00
2022-08-31T23:30:43.930Z,100.00
2022-08-31T23:33:14.023Z,100.00
2022-08-31T23:35:43.343Z,100.00
2022-08-31T23:38:11.908Z,100.00
2022-08-31T23:40:41.585Z,100.00
2022-08-31T23:43:10.907Z,100.00
2022-08-31T23:45:41.099Z,100.00
2022-08-31T23:48:10.051Z,100.00
2022-08-31T23:50:40.129Z,100.00
2022-08-31T23:53:14.941Z,100.00
2022-08-31T23:55:44.598Z,100.00
2022-08-31T23:58:14.241Z,100.00
